Historique des mesures à Cassis (13260), France
Quotidien Résumé Mai 14, 2017 Unités:  US    Métrique   Métrique/US
« Précédent (Jour)
Suivant (Jour) »
Quotidien Hebdomadaire Mensuel Annuel Période au choix
  Maximum: Minimum: Moyenne:
Température: 32 °F 57 °F 65.7 °F
Point de rosée: 32 °F 51.3 °F 54.1 °F
Humidité: Humidity % 45 % 64 %
Vitesse du vent: WindSpeedKMH mph 0.0 mph 3.3 mph
Rafales: WindSpeedGustKMH mph - -
Vent:- - SSW
Pression: 0 in 30 in -
Précipitations: 0 in    
Historical Graphs
 
 
Mesures pour : Mai 14, 2017
Heure Temperature Point de rosée Pression Vent Vitesse du vent Rafales Humidité Pluie (par heure) Conditions
32 °F 32 °F 0 in Calm     Humidity % 0 in SoftwareType W/m2
00:10 60.4 °F 54.7 °F 30 in Calm     81 % 0 in open2300-1.11 W/m2
01:10 60.1 °F 54.7 °F 30 in Calm   1.4 mph 82 % 0 in open2300-1.11 W/m2
02:10 60.1 °F 54.7 °F 30 in WNW 8.2 mph 8.2 mph 82 % 0 in open2300-1.11 W/m2
03:10 59.7 °F 54 °F 30 in Calm     81 % 0 in open2300-1.11 W/m2
04:11 58.8 °F 52.7 °F 30 in Calm     80 % 0 in open2300-1.11 W/m2
05:10 57.7 °F 52 °F 30 in Calm     81 % 0 in open2300-1.11 W/m2
06:10 57 °F 51.3 °F 30 in Calm     81 % 0 in open2300-1.11 W/m2
07:11 58.5 °F 53.1 °F 30 in Calm     82 % 0 in open2300-1.11 W/m2
08:10 62.4 °F 55 °F 30.1 in North 2.9 mph 2.9 mph 77 % 0 in open2300-1.11 W/m2
09:10 64 °F 56.3 °F 30.1 in Calm     76 % 0 in open2300-1.11 W/m2
10:11 65.7 °F 57.9 °F 30.1 in Calm     76 % 0 in open2300-1.11 W/m2
11:10 72.1 °F 61 °F 30.1 in SSE 1.8 mph 4.0 mph 68 % 0 in open2300-1.11 W/m2
12:10 73.8 °F 60.8 °F 30.1 in SSW 5.0 mph 6.1 mph 64 % 0 in open2300-1.11 W/m2
13:10 75 °F 59.7 °F 30.1 in West 2.1 mph 18.7 mph 59 % 0 in open2300-1.11 W/m2
14:10 77.4 °F 57.4 °F 30.1 in WNW 2.6 mph 14.3 mph 50 % 0 in open2300-1.11 W/m2
15:10 77 °F 54.7 °F 30.1 in WNW 20.6 mph 20.6 mph 46 % 0 in open2300-1.11 W/m2
16:10 76.3 °F 53.2 °F 30.1 in NNE 3.2 mph 17.7 mph 45 % 0 in open2300-1.11 W/m2
17:10 75.9 °F 54.1 °F 30.1 in West 5.8 mph 7.2 mph 47 % 0 in open2300-1.11 W/m2
18:10 73.6 °F 58.3 °F 30.1 in Calm   5.5 mph 59 % 0 in open2300-1.11 W/m2
19:10 71.4 °F 56.8 °F 30.1 in WNW 4.7 mph 4.7 mph 60 % 0 in open2300-1.11 W/m2
20:10 70.5 °F 54 °F 30.1 in North 4.0 mph 8.2 mph 56 % 0 in open2300-1.11 W/m2
21:10 67.8 °F 52.5 °F 30.1 in NNW 13.7 mph 13.7 mph 58 % 0 in open2300-1.11 W/m2
22:10 67.3 °F 53.1 °F 30.1 in NW 4.7 mph 10.8 mph 60 % 0 in open2300-1.11 W/m2
23:10 68.5 °F 51.3 °F 30.1 in North 2.1 mph 9.7 mph 54 % 0 in open2300-1.11 W/m2
Observations météo à CASSIS
WU-History script by Weather Underground - 1 mb